createdAt,value
2024-02-27T00:00:23.666Z,96619.50
2024-02-27T00:02:52.728Z,96625.09
2024-02-27T00:05:20.536Z,96636.50
2024-02-27T00:07:48.271Z,96638.59
2024-02-27T00:10:16.038Z,96644.63
2024-02-27T00:12:43.838Z,96645.66
2024-02-27T00:15:11.576Z,96654.19
2024-02-27T00:17:39.384Z,96655.03
2024-02-27T00:20:09.542Z,96654.41
2024-02-27T00:22:37.257Z,96651.06
2024-02-27T00:25:05.512Z,96654.41
2024-02-27T00:27:33.256Z,96651.72
2024-02-27T00:30:00.943Z,96650.28
2024-02-27T00:32:28.643Z,96657.97
2024-02-27T00:34:56.310Z,96662.13
2024-02-27T00:37:25.284Z,96668.34
2024-02-27T00:39:54.482Z,96675.00
2024-02-27T00:42:22.131Z,96682.66
2024-02-27T00:44:49.699Z,96680.56
2024-02-27T00:47:17.260Z,96680.56
2024-02-27T00:49:44.920Z,96674.78
2024-02-27T00:52:12.477Z,96683.06
2024-02-27T00:54:41.460Z,96677.66
2024-02-27T00:57:09.138Z,96690.69
2024-02-27T00:59:36.761Z,96695.47
2024-02-27T01:02:04.318Z,96700.19
2024-02-27T01:04:33.715Z,96700.56
2024-02-27T01:07:01.601Z,96700.75
2024-02-27T01:09:29.530Z,96703.63
2024-02-27T01:11:58.538Z,96694.09
2024-02-27T01:14:26.174Z,96694.09
2024-02-27T01:16:53.979Z,96690.56
2024-02-27T01:19:21.895Z,96694.69
2024-02-27T01:21:49.574Z,96693.84
2024-02-27T01:24:17.178Z,96683.88
2024-02-27T01:26:44.800Z,96687.03
2024-02-27T01:29:13.900Z,96685.81
2024-02-27T01:31:41.525Z,96683.31
2024-02-27T01:34:09.248Z,96673.56
2024-02-27T01:36:36.870Z,96675.25
2024-02-27T01:39:05.625Z,96672.53
2024-02-27T01:41:33.520Z,96663.00
2024-02-27T01:44:01.220Z,96658.66
2024-02-27T01:46:31.494Z,96662.84
2024-02-27T01:48:59.582Z,96659.94
2024-02-27T01:51:27.817Z,96655.59
2024-02-27T01:53:58.665Z,96657.28
2024-02-27T01:56:26.843Z,96650.84
2024-02-27T01:58:55.746Z,96654.78
2024-02-27T02:01:24.183Z,96658.72
2024-02-27T02:03:55.198Z,96653.97
2024-02-27T02:06:23.008Z,96652.53
2024-02-27T02:08:50.734Z,96652.75
2024-02-27T02:11:18.512Z,96657.13
2024-02-27T02:13:46.469Z,96663.97
2024-02-27T02:16:15.406Z,96667.28
2024-02-27T02:18:43.211Z,96673.75
2024-02-27T02:21:12.283Z,96676.84
2024-02-27T02:23:40.729Z,96679.53
2024-02-27T02:26:08.494Z,96688.91
2024-02-27T02:28:36.130Z,96681.84
2024-02-27T02:31:04.076Z,96689.53
2024-02-27T02:33:31.935Z,96689.75
2024-02-27T02:35:59.708Z,96695.78
2024-02-27T02:38:28.685Z,96700.09
2024-02-27T02:40:56.430Z,96698.88
2024-02-27T02:43:24.052Z,96711.13
2024-02-27T02:45:51.772Z,96712.16
2024-02-27T02:48:19.592Z,96712.34
2024-02-27T02:50:48.238Z,96716.72
2024-02-27T02:53:15.928Z,96716.94
2024-02-27T02:55:46.788Z,96722.34
2024-02-27T02:58:14.341Z,96720.88
2024-02-27T03:00:42.119Z,96725.03
2024-02-27T03:03:09.777Z,96722.53
2024-02-27T03:05:38.085Z,96723.56
2024-02-27T03:08:06.070Z,96730.00
2024-02-27T03:10:33.800Z,96727.50
2024-02-27T03:13:02.975Z,96725.22
2024-02-27T03:15:31.610Z,96730.59
2024-02-27T03:17:59.459Z,96724.56
2024-02-27T03:20:28.357Z,96734.56
2024-02-27T03:22:55.922Z,96737.50
2024-02-27T03:25:23.480Z,96731.44
2024-02-27T03:27:51.170Z,96744.06
2024-02-27T03:30:20.460Z,96740.75
2024-02-27T03:32:48.348Z,96746.97
2024-02-27T03:35:16.193Z,96745.94
2024-02-27T03:37:44.381Z,96753.44
2024-02-27T03:40:12.387Z,96748.44
2024-02-27T03:42:40.116Z,96748.63
2024-02-27T03:45:10.010Z,96747.59
2024-02-27T03:47:39.154Z,96752.41
2024-02-27T03:50:07.802Z,96746.38
2024-02-27T03:52:35.574Z,96751.97
2024-02-27T03:55:03.549Z,96754.25
2024-02-27T03:57:31.164Z,96750.94
2024-02-27T03:59:58.895Z,96746.16
2024-02-27T04:02:26.511Z,96755.47
2024-02-27T04:04:55.590Z,96757.53
2024-02-27T04:07:23.235Z,96769.59
2024-02-27T04:09:50.818Z,96769.59
2024-02-27T04:12:18.400Z,96772.47
2024-02-27T04:14:46.084Z,96781.19
2024-02-27T04:17:13.690Z,96778.91
2024-02-27T04:19:41.521Z,96772.06
2024-02-27T04:22:10.840Z,96780.78
2024-02-27T04:24:38.444Z,96784.28
2024-02-27T04:27:06.443Z,96786.38
2024-02-27T04:29:34.097Z,96794.47
2024-02-27T04:32:01.794Z,96797.16
2024-02-27T04:34:29.573Z,96806.09
2024-02-27T04:36:58.027Z,96797.16
2024-02-27T04:39:29.882Z,96802.34
2024-02-27T04:41:57.642Z,96802.78
2024-02-27T04:44:25.214Z,96813.75
2024-02-27T04:46:52.891Z,96815.84
2024-02-27T04:49:20.538Z,96818.94
2024-02-27T04:51:49.834Z,96824.13
2024-02-27T04:54:18.196Z,96821.63
2024-02-27T04:56:47.184Z,96832.63
2024-02-27T04:59:14.885Z,96839.69
2024-02-27T05:01:42.441Z,96828.25
2024-02-27T05:04:10.067Z,96842.78
2024-02-27T05:06:37.759Z,96839.47
2024-02-27T05:09:05.477Z,96835.94
2024-02-27T05:11:33.105Z,96847.53
2024-02-27T05:14:02.452Z,96840.91
2024-02-27T05:16:30.287Z,96841.31
2024-02-27T05:18:58.004Z,96850.88
2024-02-27T05:21:25.693Z,96860.19
2024-02-27T05:23:53.271Z,96864.75
2024-02-27T05:26:20.917Z,96872.84
2024-02-27T05:28:48.554Z,96874.69
2024-02-27T05:31:26.105Z,96876.34
2024-02-27T05:33:54.733Z,96879.88
2024-02-27T05:36:22.602Z,96882.16
2024-02-27T05:38:51.577Z,96882.16
2024-02-27T05:41:18.980Z,96884.84
2024-02-27T05:43:46.881Z,96889.78
2024-02-27T05:46:14.896Z,96889.78
2024-02-27T05:48:44.511Z,96895.16
2024-02-27T05:51:12.630Z,96897.06
2024-02-27T05:53:40.365Z,96897.25
2024-02-27T05:56:08.133Z,96912.78
2024-02-27T05:58:36.006Z,96910.94
2024-02-27T06:01:03.893Z,96908.41
2024-02-27T06:03:31.568Z,96915.91
2024-02-27T06:06:01.838Z,96918.59
2024-02-27T06:08:29.629Z,96922.31
2024-02-27T06:10:57.260Z,96921.66
2024-02-27T06:13:26.400Z,96924.59
2024-02-27T06:15:55.519Z,96931.19
2024-02-27T06:18:23.214Z,96937.22
2024-02-27T06:21:09.411Z,96941.97
2024-02-27T06:23:38.446Z,96945.50
2024-02-27T06:26:09.677Z,96949.63
2024-02-27T06:28:37.294Z,96948.22
2024-02-27T06:31:05.322Z,96957.34
2024-02-27T06:33:32.998Z,96962.31
2024-02-27T06:36:00.738Z,96957.97
2024-02-27T06:38:28.346Z,96970.63
2024-02-27T06:40:57.408Z,96972.47
2024-02-27T06:43:26.236Z,96969.56
2024-02-27T06:45:53.825Z,96978.72
2024-02-27T06:48:21.693Z,96982.00
2024-02-27T06:50:52.854Z,96991.72
2024-02-27T06:53:20.648Z,96992.78
2024-02-27T06:55:49.352Z,96992.19
2024-02-27T06:58:18.752Z,96989.03
2024-02-27T07:00:46.739Z,96997.53
2024-02-27T07:03:14.444Z,96991.13
2024-02-27T07:05:52.251Z,96992.13
2024-02-27T07:08:21.452Z,96980.94
2024-02-27T07:10:49.299Z,96991.31
2024-02-27T07:13:18.846Z,96989.63
2024-02-27T07:15:48.014Z,96989.03
2024-02-27T07:18:17.552Z,96990.06
2024-02-27T07:20:46.426Z,96992.97
2024-02-27T07:23:14.470Z,96994.84
2024-02-27T07:25:42.338Z,97000.69
2024-02-27T07:28:16.898Z,97001.75
2024-02-27T07:30:51.355Z,96998.88
2024-02-27T07:33:19.368Z,97003.00
2024-02-27T07:35:47.098Z,97006.34
2024-02-27T07:38:14.724Z,97002.81
2024-02-27T07:40:42.376Z,96992.06
2024-02-27T07:43:10.059Z,96987.09
2024-02-27T07:45:37.848Z,96983.56
2024-02-27T07:48:07.663Z,96991.66
2024-02-27T07:50:35.337Z,96992.25
2024-02-27T07:53:03.223Z,97000.75
2024-02-27T07:55:30.849Z,96998.06
2024-02-27T07:57:58.480Z,97002.22
2024-02-27T08:00:26.315Z,97008.84
2024-02-27T08:02:54.062Z,97007.84
2024-02-27T08:05:27.081Z,97019.69
2024-02-27T08:07:54.798Z,97013.06
2024-02-27T08:10:22.436Z,97014.38
2024-02-27T08:12:50.005Z,97026.44
2024-02-27T08:15:17.824Z,97026.25
2024-02-27T08:17:45.554Z,97029.34
2024-02-27T08:20:13.587Z,97030.81
2024-02-27T08:22:42.724Z,97015.25
2024-02-27T08:25:10.737Z,97011.94
2024-02-27T08:27:38.535Z,97014.66
2024-02-27T08:30:07.651Z,97008.88
2024-02-27T08:32:35.469Z,97020.69
2024-02-27T08:35:03.917Z,97016.94
2024-02-27T08:37:31.658Z,97023.41
2024-02-27T08:40:00.882Z,97025.06
2024-02-27T08:42:28.613Z,97021.97
2024-02-27T08:44:56.276Z,97027.59
2024-02-27T08:47:24.047Z,97028.00
2024-02-27T08:49:52.112Z,97035.69
2024-02-27T08:52:19.782Z,97037.94
2024-02-27T08:54:47.628Z,97042.50
2024-02-27T08:57:17.082Z,97044.34
2024-02-27T08:59:47.592Z,97049.56
2024-02-27T09:02:15.482Z,97056.00
2024-02-27T09:04:43.711Z,97052.50
2024-02-27T09:07:12.755Z,97043.38
2024-02-27T09:09:40.842Z,97059.78
2024-02-27T09:12:10.702Z,97053.38
2024-02-27T09:14:40.411Z,97047.97
2024-02-27T09:17:08.198Z,97048.38
2024-02-27T09:19:36.060Z,97054.22
2024-02-27T09:22:04.069Z,97054.44
2024-02-27T09:24:31.888Z,97052.97
2024-02-27T09:27:02.128Z,97049.25
2024-02-27T09:29:31.479Z,97041.78
2024-02-27T09:32:00.746Z,97043.41
2024-02-27T09:34:28.510Z,97054.03
2024-02-27T09:36:56.290Z,97051.53
2024-02-27T09:39:24.991Z,97048.44
2024-02-27T09:41:59.840Z,97051.75
2024-02-27T09:44:27.793Z,97047.84
2024-02-27T09:46:56.082Z,97043.25
2024-02-27T09:49:36.545Z,97043.25
2024-02-27T09:52:11.654Z,97037.66
2024-02-27T09:54:39.816Z,97046.16
2024-02-27T09:57:08.442Z,97043.66
2024-02-27T09:59:38.367Z,97046.56
2024-02-27T10:02:09.781Z,97043.44
2024-02-27T10:04:40.234Z,97047.59
2024-02-27T10:07:12.129Z,97058.84
2024-02-27T10:09:42.226Z,97060.31
2024-02-27T10:12:11.716Z,97057.16
2024-02-27T10:14:40.345Z,97062.13
2024-02-27T10:17:08.938Z,97078.59
2024-02-27T10:19:39.769Z,97072.16
2024-02-27T10:22:07.784Z,97079.22
2024-02-27T10:24:36.041Z,97083.56
2024-02-27T10:27:08.699Z,97070.03
2024-02-27T10:29:37.163Z,97085.63
2024-02-27T10:32:07.497Z,97082.50
2024-02-27T10:34:35.297Z,97088.47
2024-02-27T10:37:05.856Z,97088.88
2024-02-27T10:39:34.542Z,97083.47
2024-02-27T10:42:02.481Z,97085.34
2024-02-27T10:44:30.459Z,97093.25
2024-02-27T10:47:00.761Z,97084.66
2024-02-27T10:49:29.500Z,97082.09
2024-02-27T10:52:01.442Z,97084.56
2024-02-27T10:54:32.710Z,97090.41
2024-02-27T10:57:01.600Z,97089.09
2024-02-27T10:59:32.842Z,97086.59
2024-02-27T11:02:01.588Z,97090.75
2024-02-27T11:04:33.751Z,97086.69
2024-02-27T11:07:04.993Z,97078.91
2024-02-27T11:09:36.084Z,97081.78
2024-02-27T11:12:04.970Z,97084.72
2024-02-27T11:14:39.011Z,97084.91
2024-02-27T11:17:11.741Z,97084.25
2024-02-27T11:19:45.342Z,97090.06
2024-02-27T11:22:14.014Z,97080.97
2024-02-27T11:24:43.096Z,97090.81
2024-02-27T11:27:13.011Z,97087.03
2024-02-27T11:29:41.259Z,97082.16
2024-02-27T11:32:09.309Z,97090.47
2024-02-27T11:34:37.091Z,97086.16
2024-02-27T11:37:09.205Z,97085.59
2024-02-27T11:39:37.282Z,97085.63
2024-02-27T11:42:09.260Z,97087.66
2024-02-27T11:45:03.290Z,97088.84
2024-02-27T11:47:36.305Z,97075.50
2024-02-27T11:50:04.837Z,97075.91
2024-02-27T11:52:35.132Z,97070.88
2024-02-27T11:55:07.256Z,97069.25
2024-02-27T11:57:37.953Z,97074.16
2024-02-27T12:00:08.981Z,97069.19
2024-02-27T12:02:37.224Z,97068.53
2024-02-27T12:05:09.180Z,97070.00
2024-02-27T12:07:36.958Z,97074.00
2024-02-27T12:10:10.477Z,97071.44
2024-02-27T12:12:41.074Z,97066.78
2024-02-27T12:15:10.809Z,97061.03
2024-02-27T12:17:38.810Z,97070.00
2024-02-27T12:20:10.604Z,97070.59
2024-02-27T12:22:39.459Z,97070.53
2024-02-27T12:25:07.573Z,97081.19
2024-02-27T12:27:39.391Z,97067.25
2024-02-27T12:30:11.704Z,97078.34
2024-02-27T12:32:43.431Z,97079.56
2024-02-27T12:35:13.291Z,97073.88
2024-02-27T12:37:41.821Z,97074.09
2024-02-27T12:40:12.888Z,97068.53
2024-02-27T12:42:41.795Z,97068.22
2024-02-27T12:45:13.294Z,97068.97
2024-02-27T12:47:42.984Z,97060.63
2024-02-27T12:50:12.209Z,97051.72
2024-02-27T12:52:41.990Z,97061.00
2024-02-27T12:55:11.161Z,97066.94
2024-02-27T12:57:39.163Z,97059.31
2024-02-27T13:00:10.531Z,97057.31
2024-02-27T13:02:42.611Z,97053.00
2024-02-27T13:05:11.744Z,97046.03
2024-02-27T13:07:40.631Z,97045.59
2024-02-27T13:10:09.069Z,97039.28
2024-02-27T13:12:36.844Z,97033.47
2024-02-27T13:15:05.122Z,97030.97
2024-02-27T13:17:32.880Z,97036.97
2024-02-27T13:20:02.128Z,97030.06
2024-02-27T13:22:29.773Z,97024.25
2024-02-27T13:24:57.751Z,97027.44
2024-02-27T13:27:25.493Z,97030.50
2024-02-27T13:29:54.904Z,97020.19
2024-02-27T13:32:22.486Z,97023.34
2024-02-27T13:34:50.254Z,97028.16
2024-02-27T13:37:19.384Z,97025.44
2024-02-27T13:39:47.136Z,97023.84
2024-02-27T13:42:15.134Z,97019.88
2024-02-27T13:44:42.858Z,97021.69
2024-02-27T13:47:11.910Z,97022.16
2024-02-27T13:49:39.997Z,97024.47
2024-02-27T13:52:08.020Z,97015.50
2024-02-27T13:54:39.377Z,97021.63
2024-02-27T13:57:07.396Z,97027.56
2024-02-27T13:59:35.036Z,97023.72
2024-02-27T14:02:02.847Z,97014.81
2024-02-27T14:04:30.729Z,97020.72
2024-02-27T14:06:59.840Z,97020.19
2024-02-27T14:09:27.478Z,97010.97
2024-02-27T14:11:57.031Z,97011.28
2024-02-27T14:14:24.774Z,97002.56
2024-02-27T14:16:52.475Z,96996.56
2024-02-27T14:19:20.149Z,97006.50
2024-02-27T14:21:47.865Z,97001.53
2024-02-27T14:24:15.516Z,97001.66
2024-02-27T14:26:43.332Z,97009.84
2024-02-27T14:29:12.324Z,97021.53
2024-02-27T14:31:40.397Z,97029.53
2024-02-27T14:34:08.322Z,97035.41
2024-02-27T14:36:36.257Z,97035.41
2024-02-27T14:39:04.037Z,97035.19
2024-02-27T14:41:31.868Z,97046.66
2024-02-27T14:43:59.564Z,97039.72
2024-02-27T14:46:29.166Z,97044.16
2024-02-27T14:48:56.984Z,97041.56
2024-02-27T14:51:25.608Z,97050.28
2024-02-27T14:53:53.274Z,97048.63
2024-02-27T14:56:20.873Z,97055.88
2024-02-27T14:58:48.633Z,97060.63
2024-02-27T15:01:16.432Z,97065.22
2024-02-27T15:03:45.640Z,97077.81
2024-02-27T15:06:13.868Z,97089.94
2024-02-27T15:08:41.574Z,97087.22
2024-02-27T15:11:09.344Z,97091.16
2024-02-27T15:13:37.054Z,97095.59
2024-02-27T15:16:05.021Z,97096.78
2024-02-27T15:18:32.646Z,97112.25
2024-02-27T15:21:05.226Z,97121.69
2024-02-27T15:23:32.982Z,97117.97
2024-02-27T15:26:00.886Z,97130.31
2024-02-27T15:28:29.361Z,97122.78
2024-02-27T15:30:57.132Z,97124.28
2024-02-27T15:33:25.041Z,97129.94
2024-02-27T15:35:52.694Z,97119.06
2024-02-27T15:38:21.696Z,97123.66
2024-02-27T15:40:49.308Z,97128.06
2024-02-27T15:43:16.907Z,97133.25
2024-02-27T15:45:44.546Z,97125.16
2024-02-27T15:48:12.407Z,97128.41
2024-02-27T15:50:40.117Z,97128.34
2024-02-27T15:53:07.762Z,97130.25
2024-02-27T15:55:36.872Z,97136.13
2024-02-27T15:58:04.746Z,97136.16
2024-02-27T16:00:32.551Z,97134.69
2024-02-27T16:03:05.810Z,97141.19
2024-02-27T16:05:34.008Z,97137.38
2024-02-27T16:08:01.705Z,97143.06
2024-02-27T16:10:29.386Z,97151.84
2024-02-27T16:12:58.769Z,97142.63
2024-02-27T16:15:26.470Z,97143.72
2024-02-27T16:17:54.310Z,97145.63
2024-02-27T16:20:21.950Z,97153.56
2024-02-27T16:22:49.527Z,97161.06
2024-02-27T16:25:17.116Z,97164.41
2024-02-27T16:27:44.766Z,97162.38
2024-02-27T16:30:16.267Z,97164.69
2024-02-27T16:32:46.441Z,97173.03
2024-02-27T16:35:14.236Z,97166.16
2024-02-27T16:37:41.926Z,97174.50
2024-02-27T16:40:10.452Z,97175.34
2024-02-27T16:42:38.174Z,97174.13
2024-02-27T16:45:06.780Z,97176.66
2024-02-27T16:47:38.896Z,97176.88
2024-02-27T16:50:07.453Z,97177.72
2024-02-27T16:52:35.204Z,97184.19
2024-02-27T16:55:03.069Z,97188.16
2024-02-27T16:57:30.840Z,97185.63
2024-02-27T16:59:58.512Z,97191.53
2024-02-27T17:02:26.193Z,97192.78
2024-02-27T17:04:55.321Z,97203.84
2024-02-27T17:07:23.714Z,97195.28
2024-02-27T17:09:51.482Z,97198.44
2024-02-27T17:12:19.221Z,97194.91
2024-02-27T17:14:46.850Z,97201.34
2024-02-27T17:17:14.737Z,97203.66
2024-02-27T17:19:42.508Z,97200.72
2024-02-27T17:22:11.502Z,97200.34
2024-02-27T17:24:39.266Z,97207.81
2024-02-27T17:27:07.550Z,97204.94
2024-02-27T17:29:35.406Z,97212.03
2024-02-27T17:32:03.625Z,97218.28
2024-02-27T17:34:31.393Z,97220.59
2024-02-27T17:36:59.142Z,97223.94
2024-02-27T17:39:28.267Z,97233.50
2024-02-27T17:41:55.895Z,97242.69
2024-02-27T17:44:24.559Z,97239.16
2024-02-27T17:46:52.198Z,97240.38
2024-02-27T17:49:20.116Z,97238.28
2024-02-27T17:51:47.872Z,97242.25
2024-02-27T17:54:15.605Z,97244.97
2024-02-27T17:56:46.803Z,97243.69
2024-02-27T17:59:15.664Z,97249.53
2024-02-27T18:01:43.329Z,97243.91
2024-02-27T18:04:11.107Z,97248.47
2024-02-27T18:06:38.953Z,97248.28
2024-02-27T18:09:06.725Z,97253.91
2024-02-27T18:11:34.436Z,97265.16
2024-02-27T18:14:03.473Z,97265.16
2024-02-27T18:16:31.129Z,97263.47
2024-02-27T18:18:58.946Z,97266.38
2024-02-27T18:21:26.749Z,97270.56
2024-02-27T18:23:54.345Z,97274.53
2024-02-27T18:26:22.008Z,97280.75
2024-02-27T18:28:49.612Z,97282.88
2024-02-27T18:31:25.432Z,97282.66
2024-02-27T18:33:53.442Z,97280.59
2024-02-27T18:36:21.303Z,97293.69
2024-02-27T18:38:48.926Z,97297.84
2024-02-27T18:41:16.581Z,97301.81
2024-02-27T18:43:44.310Z,97306.38
2024-02-27T18:46:13.562Z,97310.53
2024-02-27T18:48:42.800Z,97311.97
2024-02-27T18:51:11.781Z,97304.47
2024-02-27T18:53:40.987Z,97307.38
2024-02-27T18:56:08.936Z,97314.25
2024-02-27T18:58:36.625Z,97319.44
2024-02-27T19:01:05.302Z,97317.69
2024-02-27T19:03:33.112Z,97328.28
2024-02-27T19:06:04.645Z,97330.53
2024-02-27T19:08:32.231Z,97330.50
2024-02-27T19:11:08.510Z,97316.53
2024-02-27T19:13:37.307Z,97332.50
2024-02-27T19:16:05.217Z,97334.78
2024-02-27T19:18:33.757Z,97337.44
2024-02-27T19:21:01.424Z,97336.97
2024-02-27T19:23:29.082Z,97331.50
2024-02-27T19:25:56.973Z,97339.19
2024-02-27T19:28:26.016Z,97337.28
2024-02-27T19:30:53.721Z,97345.19
2024-02-27T19:33:21.477Z,97344.97
2024-02-27T19:35:49.184Z,97343.94
2024-02-27T19:38:19.383Z,97352.50
2024-02-27T19:40:47.789Z,97347.47
2024-02-27T19:43:16.297Z,97354.34
2024-02-27T19:45:46.216Z,97350.63
2024-02-27T19:48:14.195Z,97349.19
2024-02-27T19:50:41.851Z,97352.72
2024-02-27T19:53:09.500Z,97362.94
2024-02-27T19:55:38.765Z,97359.22
2024-02-27T19:58:06.629Z,97367.31
2024-02-27T20:00:34.800Z,97355.91
2024-02-27T20:03:04.476Z,97366.53
2024-02-27T20:05:32.267Z,97365.69
2024-02-27T20:07:59.823Z,97363.59
2024-02-27T20:10:27.455Z,97365.47
2024-02-27T20:12:55.135Z,97364.44
2024-02-27T20:15:22.789Z,97365.09
2024-02-27T20:17:50.874Z,97371.94
2024-02-27T20:20:20.136Z,97384.41
2024-02-27T20:22:48.127Z,97381.06
2024-02-27T20:25:15.787Z,97363.16
2024-02-27T20:27:46.868Z,97370.25
2024-02-27T20:30:14.811Z,97387.94
2024-02-27T20:32:42.733Z,97381.91
2024-02-27T20:35:10.325Z,97388.78
2024-02-27T20:37:39.358Z,97387.13
2024-02-27T20:40:10.316Z,97394.38
2024-02-27T20:42:38.007Z,97394.56
2024-02-27T20:45:06.964Z,97397.50
2024-02-27T20:47:34.572Z,97400.81
2024-02-27T20:50:02.677Z,97408.06
2024-02-27T20:52:31.411Z,97406.44
2024-02-27T20:55:00.609Z,97403.91
2024-02-27T20:57:31.954Z,97415.75
2024-02-27T21:00:07.270Z,97408.91
2024-02-27T21:02:34.943Z,97416.16
2024-02-27T21:05:02.816Z,97416.16
2024-02-27T21:07:30.425Z,97419.88
2024-02-27T21:10:03.199Z,97417.38
2024-02-27T21:12:31.230Z,97416.16
2024-02-27T21:15:01.502Z,97423.63
2024-02-27T21:17:30.620Z,97418.03
2024-02-27T21:19:58.427Z,97425.94
2024-02-27T21:22:26.209Z,97425.94
2024-02-27T21:24:54.364Z,97426.13
2024-02-27T21:27:23.621Z,97440.66
2024-02-27T21:29:51.307Z,97441.50
2024-02-27T21:32:19.141Z,97442.34
2024-02-27T21:34:46.835Z,97440.00
2024-02-27T21:37:14.741Z,97437.13
2024-02-27T21:39:42.422Z,97443.16
2024-02-27T21:42:10.129Z,97449.19
2024-02-27T21:44:39.135Z,97444.63
2024-02-27T21:47:06.929Z,97449.00
2024-02-27T21:49:34.580Z,97453.38
2024-02-27T21:52:04.004Z,97458.59
2024-02-27T21:54:32.375Z,97470.44
2024-02-27T21:57:00.036Z,97472.28
2024-02-27T21:59:27.738Z,97470.19
2024-02-27T22:01:56.778Z,97471.25
2024-02-27T22:04:24.426Z,97468.94
2024-02-27T22:06:52.173Z,97469.59
2024-02-27T22:09:19.798Z,97469.41
2024-02-27T22:11:47.557Z,97473.97
2024-02-27T22:14:15.202Z,97484.13
2024-02-27T22:16:43.022Z,97491.38
2024-02-27T22:19:12.397Z,97494.09
2024-02-27T22:21:40.942Z,97495.09
2024-02-27T22:24:08.634Z,97498.03
2024-02-27T22:26:37.045Z,97486.75
2024-02-27T22:29:04.621Z,97501.09
2024-02-27T22:31:32.531Z,97504.03
2024-02-27T22:34:00.111Z,97503.63
2024-02-27T22:36:29.308Z,97502.97
2024-02-27T22:38:57.010Z,97500.00
2024-02-27T22:41:24.713Z,97502.53
2024-02-27T22:43:52.373Z,97508.28
2024-02-27T22:46:25.567Z,97507.88
2024-02-27T22:48:53.326Z,97507.78
2024-02-27T22:51:21.196Z,97508.19
2024-02-27T22:53:50.248Z,97509.66
2024-02-27T22:56:17.947Z,97509.88
2024-02-27T22:58:45.486Z,97514.25
2024-02-27T23:01:15.359Z,97511.47
2024-02-27T23:03:43.026Z,97528.97
2024-02-27T23:06:10.759Z,97531.00
2024-02-27T23:08:38.476Z,97517.72
2024-02-27T23:11:07.689Z,97517.91
2024-02-27T23:13:35.237Z,97524.97
2024-02-27T23:16:03.082Z,97523.13
2024-02-27T23:18:30.743Z,97526.19
2024-02-27T23:20:58.594Z,97530.56
2024-02-27T23:23:26.157Z,97526.59
2024-02-27T23:25:53.709Z,97528.25
2024-02-27T23:28:25.791Z,97534.50
2024-02-27T23:30:53.880Z,97533.00
2024-02-27T23:33:21.663Z,97542.97
2024-02-27T23:35:49.341Z,97545.66
2024-02-27T23:38:18.447Z,97548.38
2024-02-27T23:40:47.347Z,97540.84
2024-02-27T23:43:15.105Z,97552.47
2024-02-27T23:45:44.732Z,97547.25
2024-02-27T23:48:12.544Z,97548.28
2024-02-27T23:50:40.248Z,97549.97
2024-02-27T23:53:07.784Z,97549.31
2024-02-27T23:55:36.570Z,97555.94
2024-02-27T23:58:04.481Z,97550.94
